sensor_id;sensor_type;location;lat;lon;timestamp;pressure;altitude;pressure_sealevel;temperature;humidity
51986;BME280;38002;53.296;6.600;2022-11-24T00:02:28;100317.78;;;7.11;92.70
51986;BME280;38002;53.296;6.600;2022-11-24T00:07:29;100327.75;;;7.10;92.93
51986;BME280;38002;53.296;6.600;2022-11-24T00:12:29;100331.97;;;7.13;94.07
51986;BME280;38002;53.296;6.600;2022-11-24T00:17:30;100326.44;;;7.14;92.77
51986;BME280;38002;53.296;6.600;2022-11-24T00:22:31;100326.44;;;7.14;93.12
51986;BME280;38002;53.296;6.600;2022-11-24T00:27:31;100326.56;;;7.13;93.43
51986;BME280;38002;53.296;6.600;2022-11-24T00:32:32;100325.44;;;7.15;93.00
51986;BME280;38002;53.296;6.600;2022-11-24T00:37:32;100323.88;;;7.13;93.81
51986;BME280;38002;53.296;6.600;2022-11-24T00:42:33;100331.97;;;7.13;93.39
51986;BME280;38002;53.296;6.600;2022-11-24T00:47:33;100336.84;;;7.09;93.79
51986;BME280;38002;53.296;6.600;2022-11-24T00:52:33;100334.59;;;7.05;93.42
51986;BME280;38002;53.296;6.600;2022-11-24T00:57:34;100340.16;;;7.03;93.78
51986;BME280;38002;53.296;6.600;2022-11-24T01:02:34;100349.81;;;7.06;94.62
51986;BME280;38002;53.296;6.600;2022-11-24T01:07:35;100350.81;;;7.05;94.16
51986;BME280;38002;53.296;6.600;2022-11-24T01:12:35;100348.25;;;7.03;93.81
51986;BME280;38002;53.296;6.600;2022-11-24T01:17:36;100364.03;;;7.08;93.93
51986;BME280;38002;53.296;6.600;2022-11-24T01:22:36;100372.97;;;7.08;93.77
51986;BME280;38002;53.296;6.600;2022-11-24T01:27:43;100388.53;;;7.06;93.70
51986;BME280;38002;53.296;6.600;2022-11-24T01:32:44;100395.22;;;7.02;93.68
51986;BME280;38002;53.296;6.600;2022-11-24T01:37:44;100399.53;;;6.95;93.49
51986;BME280;38002;53.296;6.600;2022-11-24T01:42:50;100412.50;;;6.92;94.20
51986;BME280;38002;53.296;6.600;2022-11-24T01:47:50;100411.81;;;6.90;93.30
51986;BME280;38002;53.296;6.600;2022-11-24T01:52:53;100413.94;;;6.86;93.89
51986;BME280;38002;53.296;6.600;2022-11-24T01:58:14;100417.47;;;6.87;93.99
51986;BME280;38002;53.296;6.600;2022-11-24T02:03:23;100427.16;;;6.89;94.03
51986;BME280;38002;53.296;6.600;2022-11-24T02:08:45;100434.13;;;6.92;93.60
51986;BME280;38002;53.296;6.600;2022-11-24T02:13:47;100435.69;;;6.94;94.21
51986;BME280;38002;53.296;6.600;2022-11-24T02:18:48;100434.53;;;6.97;94.25
51986;BME280;38002;53.296;6.600;2022-11-24T02:29:09;100474.94;;;6.98;94.04
51986;BME280;38002;53.296;6.600;2022-11-24T02:34:10;100462.09;;;7.00;94.17
51986;BME280;38002;53.296;6.600;2022-11-24T02:39:12;100454.97;;;6.99;94.30
51986;BME280;38002;53.296;6.600;2022-11-24T02:44:14;100463.25;;;6.98;95.24
51986;BME280;38002;53.296;6.600;2022-11-24T02:49:16;100454.44;;;6.96;94.22
51986;BME280;38002;53.296;6.600;2022-11-24T02:54:17;100459.28;;;6.92;94.08
51986;BME280;38002;53.296;6.600;2022-11-24T02:59:17;100476.81;;;6.88;94.47
51986;BME280;38002;53.296;6.600;2022-11-24T03:04:18;100483.50;;;6.84;94.35
51986;BME280;38002;53.296;6.600;2022-11-24T03:09:19;100477.25;;;6.83;94.34
51986;BME280;38002;53.296;6.600;2022-11-24T03:14:19;100480.09;;;6.82;94.38
51986;BME280;38002;53.296;6.600;2022-11-24T03:19:19;100481.78;;;6.83;95.27
51986;BME280;38002;53.296;6.600;2022-11-24T03:24:20;100489.78;;;6.84;94.74
51986;BME280;38002;53.296;6.600;2022-11-24T03:29:21;100492.31;;;6.86;94.73
51986;BME280;38002;53.296;6.600;2022-11-24T03:34:21;100496.72;;;6.87;94.58
51986;BME280;38002;53.296;6.600;2022-11-24T03:39:21;100505.81;;;6.86;94.73
51986;BME280;38002;53.296;6.600;2022-11-24T03:44:22;100511.09;;;6.88;95.06
51986;BME280;38002;53.296;6.600;2022-11-24T03:49:22;100518.19;;;6.89;94.89
51986;BME280;38002;53.296;6.600;2022-11-24T03:54:23;100513.34;;;6.92;94.99
51986;BME280;38002;53.296;6.600;2022-11-24T03:59:23;100522.19;;;6.94;94.76
51986;BME280;38002;53.296;6.600;2022-11-24T04:04:24;100540.94;;;6.96;94.23
51986;BME280;38002;53.296;6.600;2022-11-24T04:09:24;100539.81;;;6.98;94.58
51986;BME280;38002;53.296;6.600;2022-11-24T04:14:24;100553.00;;;7.01;94.46
51986;BME280;38002;53.296;6.600;2022-11-24T04:19:25;100546.88;;;6.99;93.90
51986;BME280;38002;53.296;6.600;2022-11-24T04:24:25;100564.97;;;6.99;94.58
51986;BME280;38002;53.296;6.600;2022-11-24T04:29:25;100576.78;;;6.98;94.29
51986;BME280;38002;53.296;6.600;2022-11-24T04:34:26;100572.25;;;6.98;94.15
51986;BME280;38002;53.296;6.600;2022-11-24T04:39:26;100581.03;;;7.00;94.13
51986;BME280;38002;53.296;6.600;2022-11-24T04:44:27;100580.19;;;7.00;93.62
51986;BME280;38002;53.296;6.600;2022-11-24T04:49:27;100579.94;;;6.93;93.76
51986;BME280;38002;53.296;6.600;2022-11-24T04:54:27;100593.88;;;6.89;93.99
51986;BME280;38002;53.296;6.600;2022-11-24T04:59:28;100590.75;;;6.83;93.62
51986;BME280;38002;53.296;6.600;2022-11-24T05:04:28;100586.63;;;6.79;94.35
51986;BME280;38002;53.296;6.600;2022-11-24T05:09:29;100599.28;;;6.79;93.99
51986;BME280;38002;53.296;6.600;2022-11-24T05:14:29;100604.13;;;6.75;93.86
51986;BME280;38002;53.296;6.600;2022-11-24T05:19:30;100619.78;;;6.72;93.20
51986;BME280;38002;53.296;6.600;2022-11-24T05:24:30;100629.19;;;6.68;93.83
51986;BME280;38002;53.296;6.600;2022-11-24T05:29:30;100628.88;;;6.61;93.49
51986;BME280;38002;53.296;6.600;2022-11-24T05:34:31;100630.03;;;6.59;93.51
51986;BME280;38002;53.296;6.600;2022-11-24T05:39:36;100627.88;;;6.53;93.62
51986;BME280;38002;53.296;6.600;2022-11-24T05:44:36;100643.41;;;6.51;93.61
51986;BME280;38002;53.296;6.600;2022-11-24T05:49:37;100649.06;;;6.48;94.43
51986;BME280;38002;53.296;6.600;2022-11-24T05:54:37;100653.47;;;6.49;94.52
51986;BME280;38002;53.296;6.600;2022-11-24T05:59:38;100663.00;;;6.53;94.64
51986;BME280;38002;53.296;6.600;2022-11-24T06:04:38;100677.78;;;6.58;94.21
51986;BME280;38002;53.296;6.600;2022-11-24T06:09:39;100687.75;;;6.58;94.36
51986;BME280;38002;53.296;6.600;2022-11-24T06:14:40;100695.84;;;6.58;93.50
51986;BME280;38002;53.296;6.600;2022-11-24T06:19:41;100695.84;;;6.58;93.59
51986;BME280;38002;53.296;6.600;2022-11-24T06:24:45;100709.47;;;6.56;93.94
51986;BME280;38002;53.296;6.600;2022-11-24T06:29:46;100715.91;;;6.55;93.61
51986;BME280;38002;53.296;6.600;2022-11-24T06:34:46;100725.00;;;6.54;93.99
51986;BME280;38002;53.296;6.600;2022-11-24T06:39:47;100743.16;;;6.52;93.90
51986;BME280;38002;53.296;6.600;2022-11-24T06:44:48;100762.09;;;6.52;94.37
51986;BME280;38002;53.296;6.600;2022-11-24T06:49:48;100755.97;;;6.50;94.26
51986;BME280;38002;53.296;6.600;2022-11-24T06:54:49;100766.63;;;6.52;93.84
51986;BME280;38002;53.296;6.600;2022-11-24T06:59:49;100777.72;;;6.49;93.70
51986;BME280;38002;53.296;6.600;2022-11-24T07:04:50;100777.03;;;6.47;93.50
51986;BME280;38002;53.296;6.600;2022-11-24T07:09:50;100776.41;;;6.43;93.58
51986;BME280;38002;53.296;6.600;2022-11-24T07:14:51;100791.91;;;6.41;93.28
51986;BME280;38002;53.296;6.600;2022-11-24T07:19:51;100798.31;;;6.40;93.85
51986;BME280;38002;53.296;6.600;2022-11-24T07:24:51;100803.81;;;6.38;93.06
51986;BME280;38002;53.296;6.600;2022-11-24T07:29:52;100810.38;;;6.36;93.60
51986;BME280;38002;53.296;6.600;2022-11-24T07:34:52;100819.03;;;6.39;93.97
51986;BME280;38002;53.296;6.600;2022-11-24T07:39:53;100813.41;;;6.43;94.08
51986;BME280;38002;53.296;6.600;2022-11-24T07:44:53;100825.88;;;6.44;93.64
51986;BME280;38002;53.296;6.600;2022-11-24T07:49:53;100846.38;;;6.46;93.82
51986;BME280;38002;53.296;6.600;2022-11-24T07:54:54;100848.81;;;6.49;93.65
51986;BME280;38002;53.296;6.600;2022-11-24T07:59:55;100851.38;;;6.51;93.68
51986;BME280;38002;53.296;6.600;2022-11-24T08:04:55;100860.47;;;6.50;93.78
51986;BME280;38002;53.296;6.600;2022-11-24T08:09:55;100863.75;;;6.53;93.29
51986;BME280;38002;53.296;6.600;2022-11-24T08:14:56;100883.50;;;6.54;93.48
51986;BME280;38002;53.296;6.600;2022-11-24T08:19:56;100891.50;;;6.55;94.40
51986;BME280;38002;53.296;6.600;2022-11-24T08:24:57;100893.06;;;6.58;93.86
51986;BME280;38002;53.296;6.600;2022-11-24T08:29:57;100894.50;;;6.62;93.99
51986;BME280;38002;53.296;6.600;2022-11-24T08:34:57;100897.06;;;6.63;93.72
51986;BME280;38002;53.296;6.600;2022-11-24T08:39:58;100912.13;;;6.66;93.69
51986;BME280;38002;53.296;6.600;2022-11-24T08:44:58;100917.13;;;6.70;93.40
51986;BME280;38002;53.296;6.600;2022-11-24T08:49:59;100928.28;;;6.77;93.32
51986;BME280;38002;53.296;6.600;2022-11-24T08:54:59;100932.72;;;6.88;94.14
51986;BME280;38002;53.296;6.600;2022-11-24T08:59:59;100940.00;;;6.97;94.08
51986;BME280;38002;53.296;6.600;2022-11-24T09:05:00;100943.59;;;7.07;93.82
51986;BME280;38002;53.296;6.600;2022-11-24T09:10:00;100942.03;;;7.14;93.64
51986;BME280;38002;53.296;6.600;2022-11-24T09:15:01;100937.38;;;7.16;93.05
51986;BME280;38002;53.296;6.600;2022-11-24T09:20:02;100949.88;;;7.17;92.87
51986;BME280;38002;53.296;6.600;2022-11-24T09:25:04;100941.75;;;7.17;93.18
51986;BME280;38002;53.296;6.600;2022-11-24T09:30:05;100940.66;;;7.19;92.94
51986;BME280;38002;53.296;6.600;2022-11-24T09:35:06;100958.75;;;7.28;92.82
51986;BME280;38002;53.296;6.600;2022-11-24T09:40:11;100973.00;;;7.40;93.05
51986;BME280;38002;53.296;6.600;2022-11-24T09:45:25;100964.50;;;7.54;92.99
51986;BME280;38002;53.296;6.600;2022-11-24T09:50:31;100970.50;;;7.67;93.05
51986;BME280;38002;53.296;6.600;2022-11-24T09:55:52;100976.31;;;7.82;92.66
51986;BME280;38002;53.296;6.600;2022-11-24T10:00:55;100998.72;;;7.94;92.46
51986;BME280;38002;53.296;6.600;2022-11-24T10:05:57;101002.16;;;8.05;91.96
51986;BME280;38002;53.296;6.600;2022-11-24T10:11:01;101004.44;;;8.19;92.08
51986;BME280;38002;53.296;6.600;2022-11-24T10:21:46;101030.22;;;8.43;90.38
51986;BME280;38002;53.296;6.600;2022-11-24T10:27:14;101041.94;;;8.53;90.58
51986;BME280;38002;53.296;6.600;2022-11-24T10:32:29;101047.47;;;8.61;90.15
51986;BME280;38002;53.296;6.600;2022-11-24T10:37:36;101045.88;;;8.68;90.74
51986;BME280;38002;53.296;6.600;2022-11-24T10:42:39;101056.03;;;8.76;89.71
51986;BME280;38002;53.296;6.600;2022-11-24T10:47:41;101046.84;;;8.86;90.62
51986;BME280;38002;53.296;6.600;2022-11-24T10:52:46;101058.09;;;9.01;90.28
51986;BME280;38002;53.296;6.600;2022-11-24T10:57:48;101067.88;;;9.21;89.97
51986;BME280;38002;53.296;6.600;2022-11-24T11:02:52;101068.66;;;9.41;89.40
51986;BME280;38002;53.296;6.600;2022-11-24T11:13:29;101069.34;;;9.97;88.92
51986;BME280;38002;53.296;6.600;2022-11-24T11:18:32;101083.69;;;10.35;88.83
51986;BME280;38002;53.296;6.600;2022-11-24T11:23:34;101076.47;;;10.61;88.81
51986;BME280;38002;53.296;6.600;2022-11-24T11:28:35;101079.47;;;10.76;86.94
51986;BME280;38002;53.296;6.600;2022-11-24T11:33:35;101091.97;;;10.86;87.51
51986;BME280;38002;53.296;6.600;2022-11-24T11:38:37;101090.69;;;10.99;87.01
51986;BME280;38002;53.296;6.600;2022-11-24T11:43:39;101085.31;;;11.07;87.47
51986;BME280;38002;53.296;6.600;2022-11-24T11:48:40;101101.53;;;11.16;81.83
51986;BME280;38002;53.296;6.600;2022-11-24T11:53:55;101102.06;;;11.20;86.15
51986;BME280;38002;53.296;6.600;2022-11-24T11:59:05;101100.44;;;11.35;86.53
51986;BME280;38002;53.296;6.600;2022-11-24T12:04:14;101111.22;;;11.45;86.28
51986;BME280;38002;53.296;6.600;2022-11-24T12:09:38;101103.81;;;11.55;84.10
51986;BME280;38002;53.296;6.600;2022-11-24T12:14:56;101102.59;;;11.57;85.39
51986;BME280;38002;53.296;6.600;2022-11-24T12:20:16;101104.13;;;11.52;82.23
51986;BME280;38002;53.296;6.600;2022-11-24T12:25:41;101111.72;;;11.40;85.39
51986;BME280;38002;53.296;6.600;2022-11-24T12:31:07;101113.22;;;11.34;85.08
51986;BME280;38002;53.296;6.600;2022-11-24T12:36:20;101115.38;;;11.31;85.96
51986;BME280;38002;53.296;6.600;2022-11-24T12:47:01;101126.47;;;11.29;84.00
51986;BME280;38002;53.296;6.600;2022-11-24T12:52:19;101131.03;;;11.29;83.47
51986;BME280;38002;53.296;6.600;2022-11-24T12:57:28;101130.38;;;11.35;84.95
51986;BME280;38002;53.296;6.600;2022-11-24T13:02:59;101127.75;;;11.43;83.21
51986;BME280;38002;53.296;6.600;2022-11-24T13:08:04;101136.63;;;11.53;85.40
51986;BME280;38002;53.296;6.600;2022-11-24T13:13:09;101139.34;;;11.53;85.21
51986;BME280;38002;53.296;6.600;2022-11-24T13:23:56;101141.72;;;11.22;83.91
51986;BME280;38002;53.296;6.600;2022-11-24T13:28:59;101141.13;;;11.11;84.98
51986;BME280;38002;53.296;6.600;2022-11-24T13:39:50;101155.53;;;10.85;85.26
51986;BME280;38002;53.296;6.600;2022-11-24T13:49:55;101166.75;;;10.65;86.26
51986;BME280;38002;53.296;6.600;2022-11-24T13:54:56;101157.94;;;10.53;85.76
51986;BME280;38002;53.296;6.600;2022-11-24T14:00:01;101163.47;;;10.43;85.76
51986;BME280;38002;53.296;6.600;2022-11-24T14:05:02;101168.50;;;10.38;85.22
51986;BME280;38002;53.296;6.600;2022-11-24T14:10:03;101176.41;;;10.32;86.52
51986;BME280;38002;53.296;6.600;2022-11-24T14:15:25;101176.19;;;10.25;86.11
51986;BME280;38002;53.296;6.600;2022-11-24T14:20:27;101168.06;;;10.16;86.64
51986;BME280;38002;53.296;6.600;2022-11-24T14:25:30;101168.94;;;10.07;86.70
51986;BME280;38002;53.296;6.600;2022-11-24T14:30:31;101171.56;;;9.98;86.88
51986;BME280;38002;53.296;6.600;2022-11-24T14:35:33;101174.88;;;9.92;87.28
51986;BME280;38002;53.296;6.600;2022-11-24T14:40:54;101167.47;;;9.85;86.99
51986;BME280;38002;53.296;6.600;2022-11-24T14:46:06;101185.09;;;9.81;87.17
51986;BME280;38002;53.296;6.600;2022-11-24T14:51:17;101189.53;;;9.72;86.67
51986;BME280;38002;53.296;6.600;2022-11-24T14:56:34;101190.28;;;9.65;86.77
51986;BME280;38002;53.296;6.600;2022-11-24T15:01:34;101200.19;;;9.56;87.39
51986;BME280;38002;53.296;6.600;2022-11-24T15:06:35;101198.34;;;9.47;88.09
51986;BME280;38002;53.296;6.600;2022-11-24T15:11:35;101198.09;;;9.40;87.50
51986;BME280;38002;53.296;6.600;2022-11-24T15:16:38;101215.63;;;9.36;88.35
51986;BME280;38002;53.296;6.600;2022-11-24T15:21:39;101213.81;;;9.27;87.79
51986;BME280;38002;53.296;6.600;2022-11-24T15:26:39;101226.66;;;9.16;88.30
51986;BME280;38002;53.296;6.600;2022-11-24T15:31:40;101231.53;;;9.02;87.88
51986;BME280;38002;53.296;6.600;2022-11-24T15:36:41;101228.97;;;8.91;88.81
51986;BME280;38002;53.296;6.600;2022-11-24T15:41:41;101231.81;;;8.80;88.07
51986;BME280;38002;53.296;6.600;2022-11-24T15:46:42;101239.78;;;8.72;88.98
51986;BME280;38002;53.296;6.600;2022-11-24T15:51:44;101242.34;;;8.64;89.42
51986;BME280;38002;53.296;6.600;2022-11-24T15:56:45;101241.50;;;8.54;88.62
51986;BME280;38002;53.296;6.600;2022-11-24T16:01:46;101250.47;;;8.45;89.11
51986;BME280;38002;53.296;6.600;2022-11-24T16:06:48;101243.28;;;8.34;89.05
51986;BME280;38002;53.296;6.600;2022-11-24T16:11:49;101250.34;;;8.26;89.22
51986;BME280;38002;53.296;6.600;2022-11-24T16:16:49;101267.59;;;8.15;89.28
51986;BME280;38002;53.296;6.600;2022-11-24T16:27:09;101259.94;;;7.99;89.20
51986;BME280;38002;53.296;6.600;2022-11-24T16:32:09;101262.75;;;7.88;89.94
51986;BME280;38002;53.296;6.600;2022-11-24T16:37:10;101249.16;;;7.79;90.27
51986;BME280;38002;53.296;6.600;2022-11-24T16:42:10;101251.69;;;7.70;89.82
51986;BME280;38002;53.296;6.600;2022-11-24T16:47:11;101243.38;;;7.62;90.07
51986;BME280;38002;53.296;6.600;2022-11-24T16:52:13;101245.28;;;7.51;89.41
51986;BME280;38002;53.296;6.600;2022-11-24T16:57:14;101252.25;;;7.44;89.82
51986;BME280;38002;53.296;6.600;2022-11-24T17:02:14;101256.47;;;7.37;89.94
51986;BME280;38002;53.296;6.600;2022-11-24T17:07:15;101255.41;;;7.28;90.23
51986;BME280;38002;53.296;6.600;2022-11-24T17:12:15;101261.72;;;7.17;90.31
51986;BME280;38002;53.296;6.600;2022-11-24T17:17:16;101265.94;;;7.10;90.53
51986;BME280;38002;53.296;6.600;2022-11-24T17:22:16;101275.44;;;7.05;90.95
51986;BME280;38002;53.296;6.600;2022-11-24T17:27:17;101265.97;;;6.99;91.15
51986;BME280;38002;53.296;6.600;2022-11-24T17:32:17;101258.41;;;6.93;91.37
51986;BME280;38002;53.296;6.600;2022-11-24T17:37:18;101264.91;;;6.91;91.86
51986;BME280;38002;53.296;6.600;2022-11-24T17:42:18;101258.19;;;6.85;91.64
51986;BME280;38002;53.296;6.600;2022-11-24T17:47:18;101256.59;;;6.82;92.35
51986;BME280;38002;53.296;6.600;2022-11-24T17:52:19;101268.41;;;6.81;91.49
51986;BME280;38002;53.296;6.600;2022-11-24T17:57:20;101271.50;;;6.77;91.43
51986;BME280;38002;53.296;6.600;2022-11-24T18:02:21;101276.16;;;6.75;91.84
51986;BME280;38002;53.296;6.600;2022-11-24T18:07:21;101265.72;;;6.70;91.64
51986;BME280;38002;53.296;6.600;2022-11-24T18:12:21;101277.66;;;6.68;92.11
51986;BME280;38002;53.296;6.600;2022-11-24T18:17:22;101288.47;;;6.68;91.80
51986;BME280;38002;53.296;6.600;2022-11-24T18:22:22;101286.47;;;6.70;91.83
51986;BME280;38002;53.296;6.600;2022-11-24T18:27:23;101284.53;;;6.72;92.56
51986;BME280;38002;53.296;6.600;2022-11-24T18:32:23;101282.81;;;6.71;92.22
51986;BME280;38002;53.296;6.600;2022-11-24T18:37:24;101288.31;;;6.69;92.16
51986;BME280;38002;53.296;6.600;2022-11-24T18:42:25;101275.66;;;6.70;92.04
51986;BME280;38002;53.296;6.600;2022-11-24T18:47:26;101273.94;;;6.69;92.80
51986;BME280;38002;53.296;6.600;2022-11-24T18:52:26;101277.66;;;6.68;92.09
51986;BME280;38002;53.296;6.600;2022-11-24T18:57:26;101279.75;;;6.64;92.90
51986;BME280;38002;53.296;6.600;2022-11-24T19:02:27;101282.31;;;6.66;92.33
51986;BME280;38002;53.296;6.600;2022-11-24T19:07:27;101279.63;;;6.66;92.76
51986;BME280;38002;53.296;6.600;2022-11-24T19:12:28;101263.13;;;6.69;92.44
51986;BME280;38002;53.296;6.600;2022-11-24T19:17:28;101277.66;;;6.68;92.51
51986;BME280;38002;53.296;6.600;2022-11-24T19:22:28;101283.06;;;6.68;92.77
51986;BME280;38002;53.296;6.600;2022-11-24T19:27:29;101274.59;;;6.61;92.74
51986;BME280;38002;53.296;6.600;2022-11-24T19:32:30;101277.44;;;6.60;92.53
51986;BME280;38002;53.296;6.600;2022-11-24T19:37:30;101277.66;;;6.57;92.86
51986;BME280;38002;53.296;6.600;2022-11-24T19:42:31;101282.09;;;6.58;93.01
51986;BME280;38002;53.296;6.600;2022-11-24T19:47:31;101280.13;;;6.60;92.66
51986;BME280;38002;53.296;6.600;2022-11-24T19:52:32;101270.81;;;6.53;92.33
51986;BME280;38002;53.296;6.600;2022-11-24T19:57:32;101271.28;;;6.58;92.57
51986;BME280;38002;53.296;6.600;2022-11-24T20:02:33;101281.13;;;6.59;93.23
51986;BME280;38002;53.296;6.600;2022-11-24T20:07:33;101271.88;;;6.61;92.43
51986;BME280;38002;53.296;6.600;2022-11-24T20:12:33;101271.03;;;6.61;92.75
51986;BME280;38002;53.296;6.600;2022-11-24T20:17:34;101275.72;;;6.59;91.84
51986;BME280;38002;53.296;6.600;2022-11-24T20:22:34;101262.47;;;6.56;93.28
51986;BME280;38002;53.296;6.600;2022-11-24T20:27:35;101259.03;;;6.54;92.64
51986;BME280;38002;53.296;6.600;2022-11-24T20:32:35;101252.16;;;6.50;92.10
51986;BME280;38002;53.296;6.600;2022-11-24T20:37:36;101248.59;;;6.49;92.11
51986;BME280;38002;53.296;6.600;2022-11-24T20:42:36;101238.91;;;6.47;92.90
51986;BME280;38002;53.296;6.600;2022-11-24T20:47:37;101256.69;;;6.49;92.44
51986;BME280;38002;53.296;6.600;2022-11-24T20:52:37;101259.28;;;6.51;92.57
51986;BME280;38002;53.296;6.600;2022-11-24T20:57:37;101259.28;;;6.51;92.87
51986;BME280;38002;53.296;6.600;2022-11-24T21:02:38;101260.25;;;6.50;92.47
51986;BME280;38002;53.296;6.600;2022-11-24T21:07:38;101272.03;;;6.49;92.98
51986;BME280;38002;53.296;6.600;2022-11-24T21:12:39;101261.38;;;6.47;92.70
51986;BME280;38002;53.296;6.600;2022-11-24T21:17:39;101255.13;;;6.47;92.24
51986;BME280;38002;53.296;6.600;2022-11-24T21:22:39;101255.22;;;6.45;93.09
51986;BME280;38002;53.296;6.600;2022-11-24T21:27:40;101249.56;;;6.48;92.98
51986;BME280;38002;53.296;6.600;2022-11-24T21:32:40;101251.03;;;6.52;92.80
51986;BME280;38002;53.296;6.600;2022-11-24T21:37:41;101246.50;;;6.53;92.74
51986;BME280;38002;53.296;6.600;2022-11-24T21:42:41;101239.34;;;6.52;93.11
51986;BME280;38002;53.296;6.600;2022-11-24T21:47:41;101240.38;;;6.51;92.94
51986;BME280;38002;53.296;6.600;2022-11-24T21:52:42;101238.91;;;6.47;92.48
51986;BME280;38002;53.296;6.600;2022-11-24T21:57:43;101249.09;;;6.43;92.53
51986;BME280;38002;53.296;6.600;2022-11-24T22:02:43;101241.25;;;6.40;92.04
51986;BME280;38002;53.296;6.600;2022-11-24T22:07:44;101237.81;;;6.38;92.59
51986;BME280;38002;53.296;6.600;2022-11-24T22:12:44;101237.81;;;6.38;92.26
51986;BME280;38002;53.296;6.600;2022-11-24T22:17:45;101229.22;;;6.33;92.38
51986;BME280;38002;53.296;6.600;2022-11-24T22:22:45;101241.28;;;6.29;91.78
51986;BME280;38002;53.296;6.600;2022-11-24T22:27:46;101230.59;;;6.27;92.31
51986;BME280;38002;53.296;6.600;2022-11-24T22:32:46;101234.53;;;6.23;92.24
51986;BME280;38002;53.296;6.600;2022-11-24T22:37:46;101236.25;;;6.24;91.73
51986;BME280;38002;53.296;6.600;2022-11-24T22:42:47;101234.53;;;6.23;92.40
51986;BME280;38002;53.296;6.600;2022-11-24T22:47:52;101231.34;;;6.29;92.11
51986;BME280;38002;53.296;6.600;2022-11-24T22:52:53;101240.75;;;6.35;92.46
51986;BME280;38002;53.296;6.600;2022-11-24T22:57:53;101236.69;;;6.41;92.23
51986;BME280;38002;53.296;6.600;2022-11-24T23:02:53;101225.50;;;6.45;92.10
51986;BME280;38002;53.296;6.600;2022-11-24T23:07:54;101221.19;;;6.54;92.44
51986;BME280;38002;53.296;6.600;2022-11-24T23:12:54;101217.00;;;6.61;92.25
51986;BME280;38002;53.296;6.600;2022-11-24T23:17:54;101219.91;;;6.69;91.96
51986;BME280;38002;53.296;6.600;2022-11-24T23:22:55;101227.38;;;6.76;92.47
51986;BME280;38002;53.296;6.600;2022-11-24T23:27:56;101217.88;;;6.82;92.30
51986;BME280;38002;53.296;6.600;2022-11-24T23:32:56;101211.50;;;6.83;92.67
51986;BME280;38002;53.296;6.600;2022-11-24T23:37:56;101209.53;;;6.85;92.51
51986;BME280;38002;53.296;6.600;2022-11-24T23:42:57;101208.41;;;6.88;92.92
51986;BME280;38002;53.296;6.600;2022-11-24T23:47:57;101197.59;;;6.88;92.75
51986;BME280;38002;53.296;6.600;2022-11-24T23:52:58;101203.88;;;6.88;93.34
51986;BME280;38002;53.296;6.600;2022-11-24T23:57:58;101197.59;;;6.88;92.99
